• Join FlightAware (Why Join?)
  • Login
  • US Flag 
12:36AM EDT


 

Airport Tracker/Info


-or-


 

Live Flight TrackerFlight Track Log ✈ UCA596 ✈ 02-Sep-2013 ✈ KIAD - KBGM

Flight Track Log - Related Links

Times and Time Zones

All times are in EDT time to prevent confusion due to time zone crossing. See the UCA596 flight status page for this flight to view local times or setup timezone preferences in your user account.

Time Position Orientation Groundspeed Altitude Reporting Facility
EDT Latitude Longitude Course Direction KTS MPH feet Rate Location/Type
12:57PM 38.9667 -77.4333 360° North 123 142 1,800  Level Potomac TRACON
12:58PM 39.0000 -77.4333 360° North 182 209 2,900 1,500 Climbing Potomac TRACON
12:59PM 39.0500 -77.4333 360° North 172 198 4,900 1,800 Climbing Potomac TRACON
01:00PM 39.1367 -77.4486 352° North 183 211 8,000 1,500 Climbing Washington Center
01:01PM 39.1908 -77.4503 359° North 178 205 9,100 1,260 Climbing Washington Center
01:02PM 39.2472 -77.4517 359° North 184 212 10,600 1,380 Climbing Washington Center
01:03PM 39.3033 -77.4503 North 189 217 11,900 1,140 Climbing Washington Center
01:04PM 39.3575 -77.4517 359° North 189 217 13,000 540 Climbing Washington Center
01:05PM 39.4222 -77.4533 359° North 209 241 13,000  Level Washington Center
01:06PM 39.4931 -77.4553 359° North 229 264 13,000  Level Washington Center
01:07PM 39.5639 -77.4542 North 244 281 13,000 840 Level Washington Center
01:09PM 39.6803 -77.4531 360° North 240 276 15,400 1,080 Climbing New York Center
01:10PM 39.7367 -77.4531 360° North 224 258 16,000 360 Climbing New York Center
01:11PM 39.8117 -77.4519 North 240 276 16,200 600 Climbing New York Center
01:12PM 39.8714 -77.4278 17° North 246 283 17,300 1,080 Climbing New York Center
01:13PM 39.9339 -77.3933 23° Northeast 230 265 18,400 840 Climbing New York Center
01:14PM 39.9903 -77.3553 27° Northeast 238 274 19,000 300 Climbing New York Center
01:15PM 40.0558 -77.2989 33° Northeast 253 291 19,000  Level New York Center
01:16PM 40.1211 -77.2508 29° Northeast 263 303 19,000  Level New York Center
01:17PM 40.1892 -77.1892 35° Northeast 279 321 19,000  Level New York Center
01:18PM 40.2489 -77.1239 40° Northeast 284 327 19,000  Level New York Center
01:19PM 40.3147 -77.0619 36° Northeast 289 333 19,000  Level New York Center
01:20PM 40.3897 -77.0225 22° Northeast 289 333 19,000  Level New York Center
01:21PM 40.4611 -76.9769 26° Northeast 284 327 19,000 -300 Level New York Center
01:22PM 40.5403 -76.9378 21° North 284 327 18,500 -780 Descending New York Center
01:23PM 40.6194 -76.8983 21° North 300 345 17,500 -900 Descending New York Center
01:24PM 40.6964 -76.8586 21° North 300 345 16,800 -840 Descending New York Center
01:25PM 40.7753 -76.8244 18° North 295 339 15,900 -900 Descending New York Center
01:26PM 40.8467 -76.7761 27° Northeast 295 339 15,100 -780 Descending New York Center
01:27PM 40.9161 -76.7217 31° Northeast 295 339 14,400 -780 Descending New York Center
01:28PM 40.9847 -76.6783 25° Northeast 280 322 13,600 -720 Descending New York Center
01:29PM 41.0553 -76.6458 19° North 275 316 13,000 -300 Descending New York Center
01:30PM 41.1256 -76.6133 19° North 275 316 13,000  Level New York Center
01:31PM 41.1986 -76.5700 24° Northeast 266 306 13,000  Level New York Center
01:32PM 41.2650 -76.5314 24° Northeast 261 300 13,000  Level New York Center
01:33PM 41.3378 -76.4908 23° Northeast 266 306 13,000  Level New York Center
01:34PM 41.3983 -76.4461 29° Northeast 266 306 13,000  Level New York Center
01:35PM 41.4617 -76.3850 36° Northeast 276 318 13,000  Level New York Center
01:36PM 41.5383 -76.3500 19° North 268 308 13,000 -240 Level New York Center
01:37PM 41.6128 -76.3144 20° North 263 303 12,600 -960 Descending New York Center
01:38PM 41.6772 -76.2753 24° Northeast 269 310 11,100 -1,380 Descending New York Center
01:39PM 41.7306 -76.2464 22° Northeast 238 274 9,900 -1,320 Descending New York Center
01:40PM 41.7986 -76.2131 20° North 226 260 8,600 -960 Descending New York Center
01:41PM 41.8564 -76.1789 24° Northeast 231 266 8,000 -300 Descending New York Center
01:42PM 41.9225 -76.1425 22° Northeast 237 273 8,000 -600 Level New York Center
01:43PM 41.9825 -76.1081 23° Northeast 244 281 6,800 -1,200 Descending New York Center
01:44PM 42.0572 -76.0667 22° Northeast 255 293 5,700 -1,140 Descending New York Center
01:45PM 42.1253 -76.0358 19° North 255 293 4,600 -1,260 Descending New York Center
01:46PM 42.1919 -76.0356 360° North 245 282 3,200 -960 Descending New York Center
01:47PM 42.2367 -76.0558 341° North 206 237 2,700 -540 Descending New York Center
01:48PM 42.2431 -76.0089 80° East 108 124 2,200 -300 Descending New York Center
01:49PM 42.2728 -75.9944 20° North 108 124 2,200 3,420 Level New York Center
01:50PM 42.2983 -75.9769 27° Northeast 108 124 9,000 3,360 Climbing New York Center
01:51PM 42.3264 -75.9567 28° Northeast 108 124 9,000  Level New York Center
01:53PM 42.2314 -75.9642 183° South  Level FlightAware Approximate
02:00PM 42.2000 -75.9667 North  Level FlightAware Approximate
02:01PM 42.2086 -75.9797 North  Level Estimated
02:02PM 42.2086 -75.9797 North  Level Estimated
02:03PM 42.2086 -75.9797 North  Level Estimated
02:04PM 42.2086 -75.9797 North  Level Estimated
02:05PM 42.2086 -75.9797 North  Level Estimated
02:06PM 42.2086 -75.9797 North  Level Estimated
02:07PM 42.2086 -75.9797 North  Level Estimated
02:08PM 42.2086 -75.9797 North  Level Estimated
02:09PM 42.2086 -75.9797 North  Level Estimated